Time;durP1;ratioP1;P1;durP2;ratioP2;P2;SDS_P1;SDS_P2;PMS_P1;PMS_P2;Temp;Humidity;BMP_temperature;BMP_pressure;BME280_temperature;BME280_humidity;BME280_pressure;Samples;Min_cycle;Max_cycle;Signal;HPM_P1;HPM_P2
2023/08/03 00:00:45;;;;;;;3.67;1.00;;;;;;;24.28;52.12;98510.75;4468523;32;35127;-66
2023/08/03 00:03:13;;;;;;;1.77;0.85;;;;;;;24.68;51.09;98512.03;4458910;32;34621;-67
2023/08/03 00:05:41;;;;;;;0.90;0.60;;;;;;;24.50;51.57;98512.97;4464999;32;34126;-66
2023/08/03 00:08:08;;;;;;;3.65;1.27;;;;;;;24.67;51.12;98504.91;4476223;32;34411;-67
2023/08/03 00:10:37;;;;;;;3.97;1.55;;;;;;;24.92;50.44;98500.06;4464209;32;33618;-66
2023/08/03 00:13:05;;;;;;;2.40;1.27;;;;;;;24.71;50.98;98508.84;4473516;32;34659;-67
2023/08/03 00:15:32;;;;;;;2.25;1.15;;;;;;;25.08;49.84;98502.06;4460222;32;33793;-66
2023/08/03 00:18:00;;;;;;;3.97;1.65;;;;;;;25.17;49.67;98504.47;4467353;32;34668;-66
2023/08/03 00:20:28;;;;;;;1.70;0.95;;;;;;;25.14;49.70;98507.72;4473532;32;35960;-67
2023/08/03 00:22:55;;;;;;;1.65;0.93;;;;;;;25.17;49.55;98507.19;4464161;32;35261;-66
2023/08/03 00:25:24;;;;;;;1.80;0.80;;;;;;;25.32;49.14;98507.56;4462431;32;33633;-67
2023/08/03 00:27:52;;;;;;;2.55;1.05;;;;;;;25.39;48.98;98512.91;4455541;32;33154;-67
2023/08/03 00:30:20;;;;;;;3.72;1.20;;;;;;;25.35;49.02;98509.81;4460943;32;35055;-68
2023/08/03 00:32:47;;;;;;;2.95;1.55;;;;;;;25.41;48.86;98514.31;4465447;32;33986;-68
2023/08/03 00:35:15;;;;;;;5.03;1.37;;;;;;;25.48;48.99;98514.19;4459813;32;34354;-68
2023/08/03 00:37:43;;;;;;;3.45;1.50;;;;;;;25.49;48.89;98515.84;4462541;32;33925;-68
2023/08/03 00:40:11;;;;;;;4.68;2.15;;;;;;;25.41;49.09;98513.50;4472638;32;34626;-67
2023/08/03 00:42:39;;;;;;;4.80;2.03;;;;;;;25.40;49.11;98509.09;4466157;32;35284;-66
2023/08/03 00:45:10;;;;;;;2.55;1.67;;;;;;;25.37;49.29;98506.84;4454903;32;33488;-68
2023/08/03 00:47:40;;;;;;;5.43;1.98;;;;;;;25.25;49.85;98506.84;4460016;32;33360;-69
2023/08/03 00:50:08;;;;;;;3.83;2.22;;;;;;;25.19;50.10;98505.06;4472145;32;33491;-69
2023/08/03 00:52:37;;;;;;;4.90;2.37;;;;;;;25.14;50.38;98505.81;4469176;32;34034;-68
2023/08/03 00:55:05;;;;;;;9.02;1.77;;;;;;;25.03;50.82;98506.59;4465734;32;33588;-67
2023/08/03 00:57:33;;;;;;;4.62;2.20;;;;;;;24.85;51.33;98510.28;4464991;32;34560;-68
2023/08/03 01:00:00;;;;;;;5.90;1.98;;;;;;;24.63;51.98;98512.75;4481832;32;34679;-69
2023/08/03 01:02:29;;;;;;;3.33;1.65;;;;;;;24.58;52.23;98526.28;4459928;32;34194;-69
2023/08/03 01:04:56;;;;;;;4.43;1.58;;;;;;;24.69;51.98;98535.59;4465394;32;35010;-68
2023/08/03 01:07:25;;;;;;;5.50;2.05;;;;;;;24.70;52.03;98529.91;4466128;32;32766;-68
2023/08/03 01:09:53;;;;;;;6.07;2.33;;;;;;;24.74;51.95;98533.00;4465203;32;35081;-68
2023/08/03 01:12:20;;;;;;;3.95;1.50;;;;;;;24.65;52.27;98529.75;4469620;32;33634;-69
2023/08/03 01:14:48;;;;;;;3.37;1.58;;;;;;;24.56;52.65;98525.72;4465722;32;34099;-68
2023/08/03 01:17:16;;;;;;;4.22;1.77;;;;;;;24.38;53.19;98521.94;4465825;32;34429;-68
2023/08/03 01:19:43;;;;;;;3.70;1.67;;;;;;;24.35;53.38;98516.09;4470568;32;33636;-68
2023/08/03 01:22:12;;;;;;;8.48;1.75;;;;;;;24.25;53.77;98524.88;4449688;32;35306;-71
2023/08/03 01:24:40;;;;;;;7.28;1.60;;;;;;;24.32;53.57;98511.94;4467868;32;32617;-66
2023/08/03 01:27:08;;;;;;;4.18;1.55;;;;;;;24.27;53.83;98517.28;4477163;32;33332;-66
2023/08/03 01:29:35;;;;;;;3.97;1.87;;;;;;;24.30;53.72;98508.63;4465825;32;33617;-66
2023/08/03 01:32:04;;;;;;;2.80;1.50;;;;;;;24.35;53.54;98511.47;4469309;32;34838;-66
2023/08/03 01:34:31;;;;;;;2.47;1.40;;;;;;;24.37;53.56;98516.72;4466387;32;33710;-66
2023/08/03 01:36:59;;;;;;;4.97;1.85;;;;;;;24.17;54.16;98509.66;4454246;32;33488;-70
2023/08/03 01:39:27;;;;;;;4.80;1.83;;;;;;;24.00;54.66;98516.81;4470159;32;33528;-70
2023/08/03 01:41:55;;;;;;;3.40;1.70;;;;;;;24.07;54.45;98514.00;4468266;32;34168;-69
2023/08/03 01:44:26;;;;;;;2.87;1.40;;;;;;;24.00;54.71;98505.06;4462823;32;33760;-70
2023/08/03 01:46:55;;;;;;;1.98;1.17;;;;;;;23.86;55.11;98501.69;4464543;32;34144;-70
2023/08/03 01:49:27;;;;;;;2.20;1.50;;;;;;;23.91;55.01;98499.91;4468873;32;33787;-68
2023/08/03 01:51:55;;;;;;;3.15;1.52;;;;;;;23.83;55.24;98491.22;4477753;32;33501;-69
2023/08/03 01:54:24;;;;;;;5.30;2.15;;;;;;;23.97;54.86;98492.69;4465652;32;33671;-69
2023/08/03 01:56:54;;;;;;;4.65;1.85;;;;;;;23.96;54.93;98484.72;4469011;32;34337;-69
2023/08/03 01:59:22;;;;;;;12.60;1.92;;;;;;;23.78;55.51;98482.84;4471005;32;33663;-71
2023/08/03 02:01:50;;;;;;;4.00;1.52;;;;;;;23.72;55.72;98479.16;4468090;32;34344;-70
2023/08/03 02:04:19;;;;;;;2.83;1.48;;;;;;;23.59;56.11;98484.75;4467061;32;33907;-70
2023/08/03 02:06:51;;;;;;;2.90;1.77;;;;;;;23.64;56.09;98484.91;4469983;32;34752;-69
2023/08/03 02:09:19;;;;;;;2.17;1.42;;;;;;;23.55;56.31;98489.00;4467134;32;33455;-69
2023/08/03 02:11:47;;;;;;;2.92;1.42;;;;;;;23.56;56.37;98490.66;4463334;32;34987;-69
2023/08/03 02:14:15;;;;;;;2.22;1.55;;;;;;;23.67;56.01;98498.09;4473795;32;34686;-69
2023/08/03 02:16:43;;;;;;;2.60;1.23;;;;;;;23.77;55.71;98494.84;4467413;32;34323;-68
2023/08/03 02:19:11;;;;;;;2.62;1.37;;;;;;;23.76;55.74;98494.03;4465336;32;33862;-68
2023/08/03 02:21:38;;;;;;;3.03;1.60;;;;;;;23.68;55.93;98500.63;4473597;32;35040;-68
2023/08/03 02:24:06;;;;;;;2.60;1.35;;;;;;;23.68;55.83;98497.91;4470211;32;34627;-68
2023/08/03 02:26:34;;;;;;;2.25;1.25;;;;;;;23.53;56.39;98499.31;4465042;32;33576;-68
2023/08/03 02:29:01;;;;;;;9.55;1.42;;;;;;;23.61;56.17;98497.13;4469608;32;34368;-68
2023/08/03 02:31:29;;;;;;;2.58;1.08;;;;;;;23.65;56.04;98501.06;4484636;32;34220;-69
2023/08/03 02:33:56;;;;;;;3.75;1.50;;;;;;;23.64;56.03;98501.28;4472188;32;34659;-69
2023/08/03 02:36:24;;;;;;;3.65;1.27;;;;;;;23.63;56.09;98496.91;4466039;32;33363;-69
2023/08/03 02:38:52;;;;;;;2.72;1.73;;;;;;;23.56;56.29;98502.41;4456384;32;33901;-68
2023/08/03 02:41:20;;;;;;;3.42;1.35;;;;;;;23.73;55.84;98505.41;4467995;32;33714;-68
2023/08/03 02:43:48;;;;;;;2.72;1.33;;;;;;;23.75;55.71;98508.72;4474438;32;33830;-69
2023/08/03 02:46:16;;;;;;;2.17;1.33;;;;;;;23.73;55.78;98508.16;4453122;32;33036;-69
2023/08/03 02:48:45;;;;;;;12.13;2.15;;;;;;;23.88;55.22;98503.12;4468297;32;33900;-69
2023/08/03 02:51:13;;;;;;;4.37;1.60;;;;;;;23.86;55.28;98498.94;4458999;32;33847;-68
2023/08/03 02:53:40;;;;;;;1.77;0.95;;;;;;;23.87;55.27;98508.81;4461238;32;33935;-69
2023/08/03 02:56:08;;;;;;;3.97;1.70;;;;;;;23.88;55.20;98500.37;4467632;32;34084;-69
2023/08/03 02:58:37;;;;;;;2.92;1.37;;;;;;;23.69;55.67;98507.78;4467267;32;34896;-70
2023/08/03 03:01:06;;;;;;;4.57;1.50;;;;;;;23.70;55.66;98514.91;4468807;32;34605;-69
2023/08/03 03:03:33;;;;;;;2.58;1.58;;;;;;;23.79;55.35;98509.97;4472055;32;34002;-69
2023/08/03 03:06:01;;;;;;;3.50;1.67;;;;;;;23.67;55.68;98507.13;4466955;32;33434;-69
2023/08/03 03:08:30;;;;;;;2.78;1.35;;;;;;;23.45;56.33;98517.69;4464952;32;33779;-69
2023/08/03 03:10:58;;;;;;;4.50;1.95;;;;;;;23.56;56.10;98510.62;4465951;32;33519;-69
2023/08/03 03:13:26;;;;;;;2.65;1.35;;;;;;;23.57;56.15;98506.00;4464441;32;33595;-69
2023/08/03 03:15:53;;;;;;;3.83;1.75;;;;;;;23.44;56.48;98507.00;4470407;32;34202;-69
2023/08/03 03:18:22;;;;;;;2.75;1.40;;;;;;;23.28;57.05;98510.34;4467937;32;33456;-69
2023/08/03 03:20:49;;;;;;;4.68;1.52;;;;;;;23.32;56.94;98512.38;4466527;32;35037;-69
2023/08/03 03:23:17;;;;;;;3.87;1.58;;;;;;;23.29;57.04;98523.75;4463495;32;33505;-69
2023/08/03 03:25:45;;;;;;;3.10;1.52;;;;;;;23.19;57.45;98528.91;4477276;32;34118;-69
2023/08/03 03:28:13;;;;;;;4.18;1.73;;;;;;;23.37;56.95;98530.78;4466218;32;34696;-69
2023/08/03 03:30:40;;;;;;;6.45;2.00;;;;;;;23.58;56.33;98534.97;4466936;32;33745;-69
2023/08/03 03:33:08;;;;;;;2.72;1.42;;;;;;;23.65;56.05;98530.28;4464122;32;33530;-69
2023/08/03 03:35:37;;;;;;;4.00;1.75;;;;;;;23.67;56.01;98530.87;4466995;32;33045;-69
2023/08/03 03:38:05;;;;;;;2.47;1.27;;;;;;;23.74;55.83;98528.94;4466785;32;35015;-68
2023/08/03 03:40:33;;;;;;;2.62;1.20;;;;;;;23.81;55.68;98531.56;4465812;32;34880;-69
2023/08/03 03:43:01;;;;;;;4.62;1.55;;;;;;;23.79;55.76;98531.81;4464337;32;33848;-69
2023/08/03 03:45:29;;;;;;;3.80;1.90;;;;;;;23.72;55.67;98536.50;4466195;32;34696;-68
2023/08/03 03:47:57;;;;;;;2.72;1.45;;;;;;;23.69;55.82;98531.50;4475115;32;34062;-69
2023/08/03 03:50:25;;;;;;;3.70;1.70;;;;;;;23.77;55.62;98523.00;4480013;32;33734;-69
2023/08/03 03:52:53;;;;;;;4.75;1.67;;;;;;;23.85;55.59;98524.56;4466192;32;34071;-69
2023/08/03 03:55:21;;;;;;;2.75;1.50;;;;;;;23.88;55.41;98522.25;4470733;32;33234;-69
2023/08/03 03:57:49;;;;;;;4.53;1.95;;;;;;;23.89;55.28;98521.16;4468114;32;34928;-68
2023/08/03 04:00:16;;;;;;;4.50;1.40;;;;;;;23.86;55.43;98518.06;4464668;32;34058;-68
2023/08/03 04:02:47;;;;;;;2.47;1.30;;;;;;;23.75;55.72;98516.94;4465341;32;33349;-69
2023/08/03 04:05:15;;;;;;;4.37;2.17;;;;;;;23.79;55.51;98517.28;4463522;32;33334;-69
2023/08/03 04:07:42;;;;;;;2.45;1.48;;;;;;;23.88;55.27;98518.66;4464841;32;34491;-70
2023/08/03 04:10:10;;;;;;;4.00;1.73;;;;;;;23.80;55.34;98513.53;4462484;32;33728;-69
2023/08/03 04:12:38;;;;;;;3.92;1.87;;;;;;;23.61;56.00;98521.69;4467420;32;34122;-70
2023/08/03 04:15:06;;;;;;;2.95;1.67;;;;;;;23.52;56.28;98517.59;4464612;32;32743;-68
2023/08/03 04:17:34;;;;;;;5.55;2.28;;;;;;;23.44;56.60;98524.22;4458933;32;33898;-67
2023/08/03 04:20:02;;;;;;;2.40;1.48;;;;;;;22.91;58.16;98527.44;4463287;32;33901;-67
2023/08/03 04:22:29;;;;;;;8.85;2.35;;;;;;;23.29;57.49;98528.38;4465518;32;33457;-67
2023/08/03 04:24:58;;;;;;;6.25;2.58;;;;;;;22.68;59.59;98530.78;4462802;32;33878;-67
2023/08/03 04:27:26;;;;;;;2.95;1.95;;;;;;;23.15;58.13;98524.97;4465601;32;33872;-65
2023/08/03 04:29:54;;;;;;;3.08;1.77;;;;;;;23.17;57.87;98528.28;4465650;32;34833;-64
2023/08/03 04:32:22;;;;;;;5.00;2.03;;;;;;;23.33;57.68;98518.66;4460305;32;35398;-66
2023/08/03 04:34:50;;;;;;;3.70;2.17;;;;;;;23.31;57.79;98518.06;4458193;32;33127;-65
2023/08/03 04:37:18;;;;;;;4.60;2.22;;;;;;;23.29;57.70;98518.28;4474399;32;35637;-65
2023/08/03 04:39:46;;;;;;;5.35;2.72;;;;;;;23.49;57.32;98518.06;4465369;32;34228;-66
2023/08/03 04:42:14;;;;;;;4.62;2.30;;;;;;;23.66;57.02;98515.56;4466294;32;33573;-66
2023/08/03 04:44:42;;;;;;;2.05;1.27;;;;;;;23.69;56.68;98506.91;4467694;32;33124;-65
2023/08/03 04:47:10;;;;;;;4.55;2.75;;;;;;;23.86;56.41;98502.50;4469772;32;34160;-66
2023/08/03 04:49:38;;;;;;;3.85;2.17;;;;;;;23.94;56.25;98510.38;4473416;32;35289;-67
2023/08/03 04:52:07;;;;;;;5.68;2.45;;;;;;;23.99;56.08;98511.59;4480539;32;34572;-66
2023/08/03 04:54:35;;;;;;;3.08;1.73;;;;;;;23.91;56.15;98521.75;4468956;32;33528;-66
2023/08/03 04:57:03;;;;;;;5.50;2.28;;;;;;;24.33;55.10;98521.81;4473820;32;33724;-67
2023/08/03 04:59:31;;;;;;;5.07;2.55;;;;;;;24.35;55.08;98506.00;4462178;32;34243;-66
2023/08/03 05:02:00;;;;;;;6.05;2.30;;;;;;;24.69;54.47;98516.44;4463080;32;33760;-66
2023/08/03 05:04:28;;;;;;;6.60;1.92;;;;;;;24.61;54.77;98512.97;4453994;32;33120;-66
2023/08/03 05:06:56;;;;;;;9.00;2.58;;;;;;;24.60;54.72;98511.31;4469077;32;33695;-65
2023/08/03 05:09:24;;;;;;;5.22;2.03;;;;;;;24.60;55.25;98518.69;4470089;32;35207;-65
2023/08/03 05:11:52;;;;;;;3.67;1.90;;;;;;;24.68;55.10;98520.25;4462904;32;33803;-73
2023/08/03 05:14:20;;;;;;;6.53;2.58;;;;;;;24.63;55.01;98518.22;4464924;32;34233;-67
2023/08/03 05:16:47;;;;;;;4.05;2.05;;;;;;;24.78;54.71;98520.50;4454459;32;33799;-67
2023/08/03 05:19:15;;;;;;;6.68;2.58;;;;;;;25.09;54.28;98520.16;4468992;32;34911;-67
2023/08/03 05:21:43;;;;;;;7.68;2.55;;;;;;;25.02;54.66;98510.41;4463177;32;33753;-66
2023/08/03 05:24:11;;;;;;;6.65;2.75;;;;;;;24.92;54.55;98519.22;4467555;32;33267;-66
2023/08/03 05:26:39;;;;;;;5.18;2.33;;;;;;;25.00;54.11;98515.28;4463733;32;33734;-68
2023/08/03 05:29:08;;;;;;;4.87;2.58;;;;;;;25.25;54.01;98515.06;4464338;32;35359;-67
2023/08/03 05:31:36;;;;;;;5.03;2.47;;;;;;;25.27;54.21;98519.25;4464690;32;33617;-68
2023/08/03 05:34:04;;;;;;;3.95;2.28;;;;;;;25.32;53.90;98516.59;4467673;32;33222;-67
2023/08/03 05:36:31;;;;;;;4.57;2.45;;;;;;;25.10;54.16;98518.25;4462379;32;34671;-67
2023/08/03 05:38:59;;;;;;;6.78;2.28;;;;;;;25.49;53.12;98524.06;4470990;32;34004;-67
2023/08/03 05:41:27;;;;;;;5.95;2.25;;;;;;;25.64;52.98;98521.66;4475588;32;33579;-67
2023/08/03 05:43:55;;;;;;;6.35;2.65;;;;;;;25.60;53.53;98525.97;4472949;32;33046;-68
2023/08/03 05:46:23;;;;;;;5.82;2.70;;;;;;;25.55;53.05;98532.19;4463929;32;35029;-68
2023/08/03 05:48:52;;;;;;;5.75;2.65;;;;;;;25.46;53.00;98527.31;4455271;32;34196;-68
2023/08/03 05:51:26;;;;;;;9.10;2.92;;;;;;;25.38;53.50;98522.19;4464889;32;34887;-68
2023/08/03 05:53:54;;;;;;;6.65;2.90;;;;;;;24.93;55.13;98528.25;4467577;32;34502;-68
2023/08/03 05:56:23;;;;;;;7.35;2.90;;;;;;;24.89;55.90;98522.41;4467205;32;34895;-68
2023/08/03 05:58:52;;;;;;;11.20;2.87;;;;;;;24.54;56.68;98525.94;4472815;32;34103;-67
2023/08/03 06:01:22;;;;;;;6.80;3.05;;;;;;;24.84;55.61;98525.84;4467150;32;34308;-67
2023/08/03 06:03:52;;;;;;;9.52;2.30;;;;;;;24.90;55.65;98524.06;4460522;32;33898;-66
2023/08/03 06:06:21;;;;;;;4.80;2.75;;;;;;;24.32;57.36;98538.44;4466897;32;33634;-67
2023/08/03 06:08:53;;;;;;;5.47;2.53;;;;;;;24.28;57.62;98542.72;4470347;32;33926;-69
2023/08/03 06:11:21;;;;;;;4.32;2.37;;;;;;;24.10;58.48;98540.84;4467602;32;34000;-69
2023/08/03 06:13:52;;;;;;;4.95;2.70;;;;;;;24.37;57.85;98538.59;4473687;32;35337;-68
2023/08/03 06:16:23;;;;;;;3.50;2.10;;;;;;;24.74;56.63;98539.28;4460130;32;34724;-68
2023/08/03 06:18:54;;;;;;;4.75;2.12;;;;;;;24.28;58.18;98553.66;4461088;32;33426;-68
2023/08/03 06:21:26;;;;;;;4.97;2.65;;;;;;;24.87;56.90;98547.28;4462758;32;33435;-68
2023/08/03 06:23:57;;;;;;;4.03;1.90;;;;;;;24.84;56.72;98547.75;4466389;32;33400;-68
2023/08/03 06:26:26;;;;;;;6.87;2.65;;;;;;;24.95;56.83;98550.75;4462140;32;33594;-68
2023/08/03 06:28:54;;;;;;;5.25;2.67;;;;;;;24.56;57.99;98561.28;4471044;32;33614;-68
2023/08/03 06:31:24;;;;;;;4.85;2.72;;;;;;;24.66;57.77;98557.97;4471875;32;34388;-68
2023/08/03 06:33:52;;;;;;;4.72;2.83;;;;;;;24.48;58.78;98558.84;4453239;32;34192;-68
2023/08/03 06:36:27;;;;;;;6.82;3.53;;;;;;;24.71;57.95;98558.09;4467791;32;33852;-66
2023/08/03 06:38:56;;;;;;;6.78;3.10;;;;;;;24.86;57.22;98556.56;4459517;32;33934;-67
2023/08/03 06:41:25;;;;;;;5.82;3.03;;;;;;;24.94;57.00;98560.00;4467434;32;33521;-67
2023/08/03 06:43:56;;;;;;;4.47;2.55;;;;;;;25.50;55.68;98556.72;4470485;32;34195;-67
2023/08/03 06:46:27;;;;;;;4.75;2.45;;;;;;;25.40;55.87;98564.72;4464148;32;33856;-66
2023/08/03 06:48:55;;;;;;;5.45;2.45;;;;;;;25.20;56.62;98566.97;4463641;32;34220;-66
2023/08/03 06:51:22;;;;;;;6.43;3.00;;;;;;;24.90;57.68;98564.31;4431480;32;33639;-67
2023/08/03 06:53:50;;;;;;;5.47;3.12;;;;;;;24.32;59.36;98572.09;4430040;32;34451;-67
2023/08/03 06:56:17;;;;;;;5.32;2.87;;;;;;;24.58;58.12;98565.41;4431681;32;34609;-68
2023/08/03 06:58:45;;;;;;;7.25;3.12;;;;;;;23.99;59.71;98571.72;4430435;32;33718;-69
2023/08/03 07:01:13;;;;;;;3.92;2.28;;;;;;;24.22;59.22;98577.28;4432249;32;33939;-68
2023/08/03 07:03:41;;;;;;;4.43;2.37;;;;;;;24.18;59.60;98579.66;4432631;32;33502;-69
2023/08/03 07:06:08;;;;;;;7.15;3.05;;;;;;;24.70;58.06;98587.34;4441084;32;33935;-69
2023/08/03 07:08:36;;;;;;;4.03;2.35;;;;;;;25.02;57.43;98589.78;4426258;32;33805;-68
2023/08/03 07:11:04;;;;;;;4.60;2.47;;;;;;;25.19;56.93;98589.94;4431213;32;33996;-68
2023/08/03 07:13:31;;;;;;;6.82;3.10;;;;;;;25.30;56.74;98586.38;4431099;32;33395;-68
2023/08/03 07:16:09;;;;;;;5.45;2.78;;;;;;;25.55;55.89;98591.59;4438539;32;33838;-68
2023/08/03 07:18:36;;;;;;;4.18;2.33;;;;;;;25.55;55.43;98595.19;4430752;32;34911;-68
2023/08/03 07:21:05;;;;;;;5.32;3.40;;;;;;;25.67;55.16;98600.63;4436833;32;33599;-68
2023/08/03 07:23:33;;;;;;;7.15;3.65;;;;;;;25.64;55.29;98597.56;4471209;32;33316;-68
2023/08/03 07:26:01;;;;;;;7.65;2.78;;;;;;;25.77;54.96;98600.84;4455906;32;33803;-67
2023/08/03 07:28:29;;;;;;;8.35;2.85;;;;;;;25.21;56.74;98609.72;4465761;32;34053;-68
2023/08/03 07:30:56;;;;;;;6.57;2.83;;;;;;;25.04;57.53;98604.91;4459368;32;33422;-68
2023/08/03 07:33:24;;;;;;;7.90;3.17;;;;;;;24.99;57.73;98610.25;4468349;32;33343;-67
2023/08/03 07:35:52;;;;;;;3.90;2.33;;;;;;;25.20;57.31;98619.84;4467826;32;33771;-69
2023/08/03 07:38:19;;;;;;;4.90;2.65;;;;;;;24.99;57.96;98625.84;4466741;32;35155;-69
2023/08/03 07:40:47;;;;;;;4.40;2.85;;;;;;;25.20;57.37;98621.72;4468719;32;34684;-68
2023/08/03 07:43:15;;;;;;;4.12;2.58;;;;;;;25.39;56.99;98636.97;4473266;32;33697;-68
2023/08/03 07:45:42;;;;;;;4.80;2.87;;;;;;;25.01;58.33;98643.72;4463488;32;33305;-67
2023/08/03 07:48:13;;;;;;;9.27;3.70;;;;;;;25.38;57.40;98640.78;4462498;32;35016;-66
2023/08/03 07:50:40;;;;;;;4.47;2.55;;;;;;;25.12;58.13;98647.56;4456960;32;126802;-67
2023/08/03 07:53:08;;;;;;;5.95;3.08;;;;;;;25.40;57.56;98637.84;4460668;32;33345;-68
2023/08/03 07:55:36;;;;;;;5.72;2.83;;;;;;;25.28;58.27;98635.06;4466919;32;33469;-68
2023/08/03 07:58:03;;;;;;;4.37;2.70;;;;;;;25.65;57.50;98638.44;4459317;32;33964;-70
2023/08/03 08:00:31;;;;;;;5.85;2.97;;;;;;;24.86;59.99;98646.88;4465446;32;32627;-68
2023/08/03 08:02:59;;;;;;;6.12;2.97;;;;;;;25.19;59.89;98648.28;4473802;32;33181;-67
2023/08/03 08:05:26;;;;;;;7.32;3.17;;;;;;;25.45;58.71;98641.50;4469350;32;34353;-69
2023/08/03 08:07:54;;;;;;;6.20;3.80;;;;;;;25.72;57.88;98643.78;4455987;32;34078;-69
2023/08/03 08:10:22;;;;;;;5.93;3.65;;;;;;;25.65;58.02;98640.31;4458829;32;33373;-69
2023/08/03 08:12:50;;;;;;;6.90;3.37;;;;;;;25.74;58.18;98650.66;4466309;32;34219;-68
2023/08/03 08:15:17;;;;;;;5.07;2.92;;;;;;;25.84;57.78;98658.31;4460958;32;34481;-68
2023/08/03 08:17:45;;;;;;;9.20;3.10;;;;;;;25.30;59.24;98665.81;4460423;32;33739;-67
2023/08/03 08:20:13;;;;;;;6.07;3.00;;;;;;;25.42;59.61;98669.38;4460194;32;34601;-69
2023/08/03 08:22:41;;;;;;;6.72;3.58;;;;;;;25.58;59.31;98669.75;4459934;32;34409;-69
2023/08/03 08:25:09;;;;;;;6.12;3.33;;;;;;;25.32;59.92;98666.38;4462824;32;33469;-68
2023/08/03 08:27:36;;;;;;;5.72;3.33;;;;;;;26.02;57.95;98673.78;4465431;32;33909;-68
2023/08/03 08:30:05;;;;;;;6.82;3.58;;;;;;;25.53;59.10;98687.72;4459239;32;33603;-69
2023/08/03 08:32:33;;;;;;;7.55;3.33;;;;;;;25.38;59.18;98683.78;4466735;32;33035;-69
2023/08/03 08:35:01;;;;;;;5.65;3.28;;;;;;;26.06;57.91;98685.94;4463292;32;33913;-69
2023/08/03 08:37:29;;;;;;;6.25;3.08;;;;;;;25.94;58.68;98694.19;4463524;32;33812;-68
2023/08/03 08:39:57;;;;;;;5.72;2.92;;;;;;;25.82;58.17;98684.31;4441670;32;33776;-69
2023/08/03 08:42:29;;;;;;;6.62;3.40;;;;;;;26.14;56.75;98690.25;4445364;32;34311;-70
2023/08/03 08:44:57;;;;;;;5.65;3.92;;;;;;;25.89;57.48;98685.03;4452151;32;34363;-70
2023/08/03 08:47:25;;;;;;;6.32;3.53;;;;;;;26.01;56.75;98685.84;4454674;32;33829;-69
2023/08/03 08:49:54;;;;;;;6.25;3.28;;;;;;;26.13;56.60;98686.66;4447260;32;34369;-69
2023/08/03 08:52:43;;;;;;;6.05;3.47;;;;;;;26.62;56.13;98689.87;4441439;32;34807;-68
2023/08/03 08:55:15;;;;;;;8.95;4.25;;;;;;;26.87;55.39;98703.28;4435401;32;34563;-68
2023/08/03 08:58:03;;;;;;;13.62;3.28;;;;;;;26.80;55.35;98702.56;4446797;32;34197;-68
2023/08/03 09:00:51;;;;;;;7.65;4.15;;;;;;;26.29;56.40;98696.03;4449136;32;32180;-68
2023/08/03 09:03:19;;;;;;;10.70;2.95;;;;;;;26.47;55.74;98697.78;4460204;32;33187;-69
2023/08/03 09:05:58;;;;;;;6.65;3.47;;;;;;;26.62;55.32;98691.81;4446435;32;33734;-68
2023/08/03 09:08:29;;;;;;;7.22;4.05;;;;;;;26.73;54.98;98696.41;4447481;32;34115;-68
2023/08/03 09:10:57;;;;;;;7.85;3.40;;;;;;;27.27;53.67;98699.63;4452616;32;33825;-68
2023/08/03 09:13:28;;;;;;;6.15;3.80;;;;;;;27.34;53.74;98700.28;4451260;32;34138;-68
2023/08/03 09:15:56;;;;;;;5.05;3.00;;;;;;;26.88;54.05;98693.13;4462000;32;34689;-69
2023/08/03 09:18:27;;;;;;;8.43;3.50;;;;;;;27.43;52.82;98692.47;4467769;32;34715;-68
2023/08/03 09:21:14;;;;;;;7.18;3.53;;;;;;;27.55;52.70;98697.87;4463729;32;33380;-68
2023/08/03 09:23:45;;;;;;;4.53;3.22;;;;;;;26.92;53.63;98684.13;4460349;32;34237;-68
2023/08/03 09:26:23;;;;;;;6.97;4.00;;;;;;;27.63;52.56;98695.53;4462369;32;33756;-68
2023/08/03 09:28:54;;;;;;;8.05;4.15;;;;;;;27.91;52.81;98699.28;4466411;32;35726;-67
2023/08/03 09:31:25;;;;;;;5.97;3.95;;;;;;;27.50;52.47;98698.63;4455065;32;33254;-67
2023/08/03 09:34:13;;;;;;;7.93;3.70;;;;;;;27.80;51.87;98722.19;4466918;32;34329;-68
2023/08/03 09:36:50;;;;;;;6.45;3.37;;;;;;;27.70;51.86;98722.00;4464931;32;33800;-68
2023/08/03 09:39:21;;;;;;;7.53;3.97;;;;;;;28.13;50.30;98720.50;4468714;32;33634;-68
2023/08/03 09:41:52;;;;;;;5.75;3.58;;;;;;;27.91;51.87;98723.19;4464279;32;34649;-68
2023/08/03 09:44:23;;;;;;;6.90;4.55;;;;;;;28.30;50.17;98726.78;4454443;32;33329;-69
2023/08/03 09:46:51;;;;;;;5.85;3.60;;;;;;;28.13;51.79;98726.81;4434802;32;34167;-68
2023/08/03 09:49:18;;;;;;;9.57;3.33;;;;;;;28.41;49.25;98723.13;4444499;32;34796;-68
2023/08/03 09:51:47;;;;;;;9.95;4.30;;;;;;;28.34;49.57;98727.94;4447396;32;33633;-68
2023/08/03 09:54:37;;;;;;;7.03;3.90;;;;;;;28.91;48.85;98723.97;4438492;32;33506;-67
2023/08/03 09:57:09;;;;;;;6.03;3.55;;;;;;;28.73;46.67;98723.22;4443598;32;33821;-68
2023/08/03 09:59:43;;;;;;;7.40;3.22;;;;;;;29.44;46.35;98734.19;4445259;32;33981;-69
2023/08/03 10:02:17;;;;;;;6.28;3.40;;;;;;;28.83;47.19;98740.94;4449237;32;33562;-68
2023/08/03 10:04:56;;;;;;;8.18;3.22;;;;;;;29.47;46.13;98741.06;4437175;32;34107;-69
2023/08/03 10:07:26;;;;;;;5.15;3.10;;;;;;;29.24;46.94;98743.06;4415785;32;33558;-69
2023/08/03 10:09:57;;;;;;;9.25;4.25;;;;;;;29.58;44.94;98736.50;4430480;32;33780;-68
2023/08/03 10:12:35;;;;;;;10.50;3.25;;;;;;;29.13;45.50;98746.81;4431325;32;34680;-68
2023/08/03 10:15:05;;;;;;;6.95;3.33;;;;;;;29.57;44.16;98735.66;4434008;32;35174;-68
2023/08/03 10:17:32;;;;;;;5.72;2.78;;;;;;;29.28;45.69;98729.63;4433718;32;34963;-69
2023/08/03 10:20:01;;;;;;;6.55;3.60;;;;;;;28.99;45.92;98734.53;4435056;32;33610;-69
2023/08/03 10:22:29;;;;;;;5.45;2.75;;;;;;;29.12;46.00;98734.16;4429219;32;34837;-68
2023/08/03 10:25:18;;;;;;;5.45;2.72;;;;;;;29.59;44.00;98733.44;4442658;32;33056;-69
2023/08/03 10:28:10;;;;;;;6.85;3.12;;;;;;;28.97;44.68;98742.22;4442599;32;33851;-69
2023/08/03 10:31:15;;;;;;;8.05;4.18;;;;;;;28.40;46.07;98739.88;4386654;32;33696;-70
2023/08/03 10:33:48;;;;;;;5.68;3.08;;;;;;;28.79;45.90;98735.13;4381975;32;33557;-69
2023/08/03 10:36:31;;;;;;;5.45;3.10;;;;;;;28.37;46.59;98743.09;4385794;32;32475;-70
2023/08/03 10:39:02;;;;;;;7.32;3.03;;;;;;;28.93;44.94;98744.66;4377524;32;34307;-69
2023/08/03 10:41:36;;;;;;;5.12;2.80;;;;;;;28.91;44.84;98744.06;4375174;32;33243;-70
2023/08/03 10:44:07;;;;;;;4.95;3.08;;;;;;;29.05;44.13;98743.69;4392396;32;33577;-68
2023/08/03 10:46:57;;;;;;;5.32;2.95;;;;;;;28.82;43.41;98753.06;4396189;32;34050;-68
2023/08/03 10:49:27;;;;;;;5.22;2.62;;;;;;;28.45;41.19;98751.78;4382541;32;33655;-68
2023/08/03 10:52:17;;;;;;;7.40;3.03;;;;;;;28.66;41.35;98754.78;4380125;32;33525;-67
2023/08/03 10:54:46;;;;;;;5.05;2.33;;;;;;;28.73;41.33;98750.78;4385280;32;33381;-67
2023/08/03 10:57:19;;;;;;;5.55;2.83;;;;;;;29.22;40.68;98750.78;4386446;32;33427;-68
2023/08/03 10:59:49;;;;;;;5.05;2.80;;;;;;;29.40;39.85;98760.56;4388017;32;33665;-70
2023/08/03 11:02:21;;;;;;;4.20;2.25;;;;;;;29.48;39.08;98748.25;4385418;32;35046;-69
2023/08/03 11:04:51;;;;;;;4.90;2.47;;;;;;;29.10;38.99;98757.53;4388565;32;33505;-69
2023/08/03 11:07:40;;;;;;;3.20;1.80;;;;;;;28.87;37.96;98753.94;4408685;32;32909;-69
2023/08/03 11:10:10;;;;;;;5.03;2.33;;;;;;;29.42;37.01;98758.41;4456087;32;34968;-68
2023/08/03 11:12:41;;;;;;;6.55;2.40;;;;;;;28.89;37.58;98768.31;4464137;32;33937;-69
2023/08/03 11:15:14;;;;;;;4.53;2.15;;;;;;;29.06;38.03;98772.91;4460766;32;35188;-69
2023/08/03 11:17:46;;;;;;;3.83;2.15;;;;;;;29.02;38.78;98776.19;4476168;32;34010;-70
2023/08/03 11:20:14;;;;;;;5.12;2.92;;;;;;;29.06;38.41;98776.50;4458168;32;33415;-69
2023/08/03 11:22:42;;;;;;;6.22;2.80;;;;;;;28.60;37.78;98783.34;4461160;32;33381;-69
2023/08/03 11:25:10;;;;;;;9.20;2.22;;;;;;;29.10;38.12;98796.94;4460656;32;34943;-69
2023/08/03 11:27:41;;;;;;;5.20;2.33;;;;;;;28.48;39.15;98805.50;4465673;32;34560;-70
2023/08/03 11:30:09;;;;;;;4.00;1.87;;;;;;;28.95;38.29;98810.47;4462359;32;33703;-70
2023/08/03 11:32:38;;;;;;;5.55;2.45;;;;;;;29.05;37.21;98801.53;4465582;32;35227;-71
2023/08/03 11:35:07;;;;;;;4.25;1.92;;;;;;;29.23;37.64;98807.53;4464794;32;33871;-70
2023/08/03 11:37:37;;;;;;;3.75;1.92;;;;;;;29.17;38.67;98813.25;4463020;32;33179;-70
2023/08/03 11:40:05;;;;;;;4.15;1.77;;;;;;;29.07;39.24;98819.47;4456447;32;34610;-69
2023/08/03 11:42:37;;;;;;;4.15;2.17;;;;;;;29.20;39.43;98816.31;4464950;32;34165;-68
2023/08/03 11:45:05;;;;;;;4.45;2.20;;;;;;;29.25;39.91;98819.16;4462082;32;33612;-69